Time;durP1;ratioP1;P1;durP2;ratioP2;P2;SDS_P1;SDS_P2;PMS_P1;PMS_P2;Temp;Humidity;BMP_temperature;BMP_pressure;BME280_temperature;BME280_humidity;BME280_pressure;Samples;Min_cycle;Max_cycle;Signal;HPM_P1;HPM_P2
2021/12/11 00:00:31;;;;;;;;;4.00;3.00;;;;;;;;5038308;28;11555;-82
2021/12/11 00:03:02;;;;;;;;;1.25;1.25;;;;;;;;5024618;28;11730;-82
2021/12/11 00:05:29;;;;;;;;;2.50;2.00;;;;;;;;5024821;28;11584;-82
2021/12/11 00:07:57;;;;;;;;;4.25;4.00;;;;;;;;5030601;28;11535;-81
2021/12/11 00:10:29;;;;;;;;;7.50;4.75;;;;;;;;5043912;28;11584;-81
2021/12/11 00:12:59;;;;;;;;;1.25;1.25;;;;;;;;5035184;28;11667;-83
2021/12/11 00:15:29;;;;;;;;;4.25;3.00;;;;;;;;5026745;28;11582;-82
2021/12/11 00:18:02;;;;;;;;;5.00;4.00;;;;;;;;5026245;28;11563;-83
2021/12/11 00:20:32;;;;;;;;;2.00;2.00;;;;;;;;5024061;28;11718;-82
2021/12/11 00:23:00;;;;;;;;;3.75;2.00;;;;;;;;5019546;28;12316;-82
2021/12/11 00:25:29;;;;;;;;;3.00;3.00;;;;;;;;5032564;28;11641;-82
2021/12/11 00:28:02;;;;;;;;;1.50;1.50;;;;;;;;5024503;28;11674;-82
2021/12/11 00:30:33;;;;;;;;;1.00;1.00;;;;;;;;5026627;28;11508;-82
2021/12/11 00:33:03;;;;;;;;;4.50;2.00;;;;;;;;5034239;28;11542;-82
2021/12/11 00:35:31;;;;;;;;;1.00;1.00;;;;;;;;5024230;28;11590;-82
2021/12/11 00:38:04;;;;;;;;;2.00;2.00;;;;;;;;5024373;28;12434;-82
2021/12/11 00:40:33;;;;;;;;;4.00;1.00;;;;;;;;5029764;28;11690;-82
2021/12/11 00:43:04;;;;;;;;;2.00;2.00;;;;;;;;5034328;28;11629;-83
2021/12/11 00:45:34;;;;;;;;;1.00;1.00;;;;;;;;5011851;28;12393;-81
2021/12/11 00:48:04;;;;;;;;;2.50;1.00;;;;;;;;5027958;28;11558;-81
2021/12/11 00:50:35;;;;;;;;;3.50;3.50;;;;;;;;5033674;28;11544;-82
2021/12/11 00:53:10;;;;;;;;;2.00;0.00;;;;;;;;5023723;28;11551;-81
2021/12/11 00:55:42;;;;;;;;;2.50;1.00;;;;;;;;5024617;28;11536;-81
2021/12/11 00:58:13;;;;;;;;;1.50;0.75;;;;;;;;5016825;28;11611;-83
2021/12/11 01:00:45;;;;;;;;;1.75;1.00;;;;;;;;5025162;28;11472;-82
2021/12/11 01:03:14;;;;;;;;;1.00;1.00;;;;;;;;5024003;28;11542;-81
2021/12/11 01:05:45;;;;;;;;;1.00;1.00;;;;;;;;5024422;28;11618;-82
2021/12/11 01:08:24;;;;;;;;;1.00;1.00;;;;;;;;5019062;28;11549;-81
2021/12/11 01:10:58;;;;;;;;;1.00;1.00;;;;;;;;5020355;28;11557;-81
2021/12/11 01:13:31;;;;;;;;;1.00;1.00;;;;;;;;5024492;28;11550;-81
2021/12/11 01:16:05;;;;;;;;;1.25;1.25;;;;;;;;5022181;28;11584;-82
2021/12/11 01:18:39;;;;;;;;;2.50;1.50;;;;;;;;5025069;28;11554;-81
2021/12/11 01:21:28;;;;;;;;;3.00;1.00;;;;;;;;5014180;28;11551;-82
2021/12/11 01:24:10;;;;;;;;;1.25;1.25;;;;;;;;5018540;28;11601;-81
2021/12/11 01:26:45;;;;;;;;;1.75;1.00;;;;;;;;5017343;28;11528;-81
2021/12/11 01:29:14;;;;;;;;;4.00;1.00;;;;;;;;5023625;28;12295;-83
2021/12/11 01:31:41;;;;;;;;;0.50;0.50;;;;;;;;5016042;28;11482;-82
2021/12/11 01:34:10;;;;;;;;;2.00;1.00;;;;;;;;5026431;28;12303;-82
2021/12/11 01:36:38;;;;;;;;;1.00;1.00;;;;;;;;5009924;28;11537;-82
2021/12/11 01:39:11;;;;;;;;;0.00;0.00;;;;;;;;5023146;28;11539;-82
2021/12/11 01:41:40;;;;;;;;;1.00;1.00;;;;;;;;5018420;28;11558;-82
2021/12/11 01:44:11;;;;;;;;;0.75;0.75;;;;;;;;5025938;28;11531;-81
2021/12/11 01:46:42;;;;;;;;;1.00;1.00;;;;;;;;5022060;28;11537;-82
2021/12/11 01:49:13;;;;;;;;;1.50;1.50;;;;;;;;5024540;28;11629;-82
2021/12/11 01:51:43;;;;;;;;;0.25;0.25;;;;;;;;5024030;28;11581;-82
2021/12/11 01:54:16;;;;;;;;;1.00;1.00;;;;;;;;5030205;28;11563;-81
2021/12/11 01:56:47;;;;;;;;;3.00;1.00;;;;;;;;5023021;28;11547;-82
2021/12/11 01:59:17;;;;;;;;;0.00;0.00;;;;;;;;5023515;28;11563;-83
2021/12/11 02:01:48;;;;;;;;;1.00;1.00;;;;;;;;5024951;28;11601;-83
2021/12/11 02:04:18;;;;;;;;;0.25;0.25;;;;;;;;5006984;28;11690;-82
2021/12/11 02:06:48;;;;;;;;;1.00;1.00;;;;;;;;5022596;28;11534;-82
2021/12/11 02:09:20;;;;;;;;;1.00;1.00;;;;;;;;5023263;28;11660;-81
2021/12/11 02:11:50;;;;;;;;;0.00;0.00;;;;;;;;5021852;28;11673;-82
2021/12/11 02:14:22;;;;;;;;;0.00;0.00;;;;;;;;5022392;28;11570;-82
2021/12/11 02:16:51;;;;;;;;;0.75;0.75;;;;;;;;5023652;28;11525;-81
2021/12/11 02:19:29;;;;;;;;;2.00;1.00;;;;;;;;5026824;28;11565;-82
2021/12/11 02:22:07;;;;;;;;;1.25;1.25;;;;;;;;5020177;28;11550;-82
2021/12/11 02:24:38;;;;;;;;;0.50;0.50;;;;;;;;5018133;28;11583;-81
2021/12/11 02:27:09;;;;;;;;;1.75;1.75;;;;;;;;5022303;28;11525;-80
2021/12/11 02:29:41;;;;;;;;;1.00;1.00;;;;;;;;5017688;28;11572;-81
2021/12/11 02:32:13;;;;;;;;;1.00;0.00;;;;;;;;5027137;28;11656;-80
2021/12/11 02:34:43;;;;;;;;;1.00;1.00;;;;;;;;5021824;28;11544;-82
2021/12/11 02:37:16;;;;;;;;;1.00;1.00;;;;;;;;5029004;28;12227;-82
2021/12/11 02:39:49;;;;;;;;;2.00;1.00;;;;;;;;5013874;28;11564;-78
2021/12/11 02:42:21;;;;;;;;;2.50;1.00;;;;;;;;5028578;28;11599;-79
2021/12/11 02:44:54;;;;;;;;;4.50;1.00;;;;;;;;5032512;28;12338;-79
2021/12/11 02:47:24;;;;;;;;;0.50;0.25;;;;;;;;5021826;28;11541;-79
2021/12/11 02:49:55;;;;;;;;;1.00;1.00;;;;;;;;5022331;28;12300;-82
2021/12/11 02:52:27;;;;;;;;;0.50;0.50;;;;;;;;5022793;28;11530;-79
2021/12/11 02:55:02;;;;;;;;;2.50;1.00;;;;;;;;5014745;28;11529;-78
2021/12/11 02:57:31;;;;;;;;;0.25;0.25;;;;;;;;5022849;28;11533;-82
2021/12/11 03:00:09;;;;;;;;;2.00;2.00;;;;;;;;5036363;28;11560;-80
2021/12/11 03:02:42;;;;;;;;;1.25;1.25;;;;;;;;5027327;28;11640;-80
2021/12/11 03:05:12;;;;;;;;;1.00;1.00;;;;;;;;5023017;28;11525;-80
2021/12/11 03:07:45;;;;;;;;;1.25;1.25;;;;;;;;5019027;28;12378;-83
2021/12/11 03:10:15;;;;;;;;;4.25;1.00;;;;;;;;5023774;28;11550;-80
2021/12/11 03:12:44;;;;;;;;;1.00;1.00;;;;;;;;5030784;28;11608;-82
2021/12/11 03:15:13;;;;;;;;;1.00;1.00;;;;;;;;5041688;28;11517;-79
2021/12/11 03:17:40;;;;;;;;;1.00;1.00;;;;;;;;5029876;28;11628;-77
2021/12/11 03:20:11;;;;;;;;;1.00;1.00;;;;;;;;5022967;28;11537;-79
2021/12/11 03:22:41;;;;;;;;;0.25;0.25;;;;;;;;5027176;28;11534;-84
2021/12/11 03:25:12;;;;;;;;;3.25;1.00;;;;;;;;5024657;28;11570;-80
2021/12/11 03:27:40;;;;;;;;;3.25;1.00;;;;;;;;5025285;28;12327;-81
2021/12/11 03:30:10;;;;;;;;;3.00;1.00;;;;;;;;5020590;28;11561;-83
2021/12/11 03:32:37;;;;;;;;;1.50;0.75;;;;;;;;5027166;28;11528;-79
2021/12/11 03:35:08;;;;;;;;;2.00;1.00;;;;;;;;5024032;28;11545;-79
2021/12/11 03:37:35;;;;;;;;;1.00;1.00;;;;;;;;5034040;28;11583;-81
2021/12/11 03:40:07;;;;;;;;;3.00;1.00;;;;;;;;5020275;28;11683;-81
2021/12/11 03:42:36;;;;;;;;;1.00;1.00;;;;;;;;5017345;28;11585;-81
2021/12/11 03:45:07;;;;;;;;;1.00;1.00;;;;;;;;5025925;28;11548;-81
2021/12/11 03:47:39;;;;;;;;;1.00;1.00;;;;;;;;5023662;28;11533;-81
2021/12/11 03:50:11;;;;;;;;;2.00;0.00;;;;;;;;5024198;28;11636;-82
2021/12/11 03:52:38;;;;;;;;;2.00;2.00;;;;;;;;5023574;28;11538;-82
2021/12/11 03:55:09;;;;;;;;;3.50;1.50;;;;;;;;5031670;28;11559;-82
2021/12/11 03:57:38;;;;;;;;;4.00;1.00;;;;;;;;5024020;28;11542;-83
2021/12/11 04:00:09;;;;;;;;;2.00;2.00;;;;;;;;5024562;28;11544;-79
2021/12/11 04:02:38;;;;;;;;;1.00;1.00;;;;;;;;5030969;28;11557;-82
2021/12/11 04:05:07;;;;;;;;;2.00;1.00;;;;;;;;5029477;28;11660;-81
2021/12/11 04:07:38;;;;;;;;;0.00;0.00;;;;;;;;5031294;28;11592;-79
2021/12/11 04:10:11;;;;;;;;;1.00;1.00;;;;;;;;5031764;28;11526;-80
2021/12/11 04:12:38;;;;;;;;;1.75;1.75;;;;;;;;5043502;28;11551;-80
2021/12/11 04:15:10;;;;;;;;;1.00;1.00;;;;;;;;5030820;28;11536;-81
2021/12/11 04:17:38;;;;;;;;;2.00;2.00;;;;;;;;5022350;28;11582;-83
2021/12/11 04:20:08;;;;;;;;;2.00;1.00;;;;;;;;5024407;28;11518;-82
2021/12/11 04:22:36;;;;;;;;;1.00;1.00;;;;;;;;5029232;28;11567;-78
2021/12/11 04:25:06;;;;;;;;;1.00;1.00;;;;;;;;5028314;28;11555;-81
2021/12/11 04:27:34;;;;;;;;;2.00;2.00;;;;;;;;5024251;28;11582;-83
2021/12/11 04:30:04;;;;;;;;;2.00;2.00;;;;;;;;5024649;28;11542;-79
2021/12/11 04:32:33;;;;;;;;;1.00;1.00;;;;;;;;5011221;28;11511;-82
2021/12/11 04:35:00;;;;;;;;;1.00;1.00;;;;;;;;5021769;28;11591;-82
2021/12/11 04:37:30;;;;;;;;;3.00;2.00;;;;;;;;5023155;28;11538;-83
2021/12/11 04:40:03;;;;;;;;;2.00;2.00;;;;;;;;5021142;28;11519;-80
2021/12/11 04:42:47;;;;;;;;;1.00;1.00;;;;;;;;5026496;28;11599;-79
2021/12/11 04:45:18;;;;;;;;;4.25;2.00;;;;;;;;5041554;28;11547;-82
2021/12/11 04:47:51;;;;;;;;;1.00;1.00;;;;;;;;5030767;28;11677;-80
2021/12/11 04:50:29;;;;;;;;;0.25;0.25;;;;;;;;5020231;28;12290;-81
2021/12/11 04:52:58;;;;;;;;;1.00;1.00;;;;;;;;5026076;28;11518;-80
2021/12/11 04:55:41;;;;;;;;;1.00;1.00;;;;;;;;5034278;28;11531;-81
2021/12/11 04:58:39;;;;;;;;;2.00;2.00;;;;;;;;5020343;28;11576;-80
2021/12/11 05:01:12;;;;;;;;;1.00;1.00;;;;;;;;5022238;28;11571;-82
2021/12/11 05:04:09;;;;;;;;;1.00;1.00;;;;;;;;5030221;28;11520;-82
2021/12/11 05:06:47;;;;;;;;;1.00;1.00;;;;;;;;5025027;28;11547;-81
2021/12/11 05:09:26;;;;;;;;;1.00;1.00;;;;;;;;5025320;28;11628;-81
2021/12/11 05:12:08;;;;;;;;;1.00;1.00;;;;;;;;5023991;28;11677;-81
2021/12/11 05:14:37;;;;;;;;;1.50;1.50;;;;;;;;5030369;28;11713;-81
2021/12/11 05:17:07;;;;;;;;;1.00;1.00;;;;;;;;5020338;28;11655;-80
2021/12/11 05:19:34;;;;;;;;;1.75;1.75;;;;;;;;5023994;28;11532;-82
2021/12/11 05:22:02;;;;;;;;;4.50;3.50;;;;;;;;5023966;28;11745;-81
2021/12/11 05:24:29;;;;;;;;;3.00;3.00;;;;;;;;5020597;28;11568;-81
2021/12/11 05:26:58;;;;;;;;;3.50;1.25;;;;;;;;5020651;28;11589;-81
2021/12/11 05:29:25;;;;;;;;;5.75;1.75;;;;;;;;5021022;28;11550;-79
2021/12/11 05:31:55;;;;;;;;;1.00;1.00;;;;;;;;5024277;28;11517;-82
2021/12/11 05:34:22;;;;;;;;;2.00;2.00;;;;;;;;5034046;28;11624;-79
2021/12/11 05:36:49;;;;;;;;;2.00;1.00;;;;;;;;5022774;28;11646;-81
2021/12/11 05:39:20;;;;;;;;;2.00;2.00;;;;;;;;5018357;28;11541;-80
2021/12/11 05:41:49;;;;;;;;;4.75;2.00;;;;;;;;5023143;28;11551;-80
2021/12/11 05:44:19;;;;;;;;;1.75;1.50;;;;;;;;5026343;28;11550;-79
2021/12/11 05:46:47;;;;;;;;;3.00;2.00;;;;;;;;5032288;28;11557;-80
2021/12/11 05:49:16;;;;;;;;;2.00;2.00;;;;;;;;5033820;28;11539;-81
2021/12/11 05:51:46;;;;;;;;;4.00;1.50;;;;;;;;5022080;28;11550;-77
2021/12/11 05:54:16;;;;;;;;;3.75;3.75;;;;;;;;5025690;28;11665;-78
2021/12/11 05:56:45;;;;;;;;;1.00;1.00;;;;;;;;5022731;28;11616;-77
2021/12/11 05:59:16;;;;;;;;;3.50;1.75;;;;;;;;5016973;28;11642;-80
2021/12/11 06:01:48;;;;;;;;;1.50;1.50;;;;;;;;5019749;28;11545;-79
2021/12/11 06:04:23;;;;;;;;;2.00;2.00;;;;;;;;5013485;28;11554;-79
2021/12/11 06:06:51;;;;;;;;;5.00;2.50;;;;;;;;5008238;28;11611;-82
2021/12/11 06:09:21;;;;;;;;;4.00;1.00;;;;;;;;5016248;28;11543;-80
2021/12/11 06:11:50;;;;;;;;;1.00;1.00;;;;;;;;5020258;28;11556;-79
2021/12/11 06:14:18;;;;;;;;;3.75;1.75;;;;;;;;5014440;28;11545;-81
2021/12/11 06:16:46;;;;;;;;;2.00;2.00;;;;;;;;5011130;28;11613;-82
2021/12/11 06:19:13;;;;;;;;;3.00;3.00;;;;;;;;5014482;28;11569;-79
2021/12/11 06:21:44;;;;;;;;;1.25;1.25;;;;;;;;5015651;28;12055;-79
2021/12/11 06:24:11;;;;;;;;;2.50;2.50;;;;;;;;5012473;28;11732;-80
2021/12/11 06:26:39;;;;;;;;;1.50;1.50;;;;;;;;5011999;28;11560;-81
2021/12/11 06:29:06;;;;;;;;;1.25;1.25;;;;;;;;5018395;28;11584;-80
2021/12/11 06:31:33;;;;;;;;;2.50;1.75;;;;;;;;5010929;28;11486;-78
2021/12/11 06:34:01;;;;;;;;;2.00;2.00;;;;;;;;5022564;28;11550;-76
2021/12/11 06:36:29;;;;;;;;;1.75;1.75;;;;;;;;5033939;28;11669;-82
2021/12/11 06:39:04;;;;;;;;;1.00;1.00;;;;;;;;5020266;28;11710;-83
2021/12/11 06:41:33;;;;;;;;;5.75;2.00;;;;;;;;5022553;28;11577;-82
2021/12/11 06:44:01;;;;;;;;;2.50;2.50;;;;;;;;5020586;28;11666;-82
2021/12/11 06:46:30;;;;;;;;;1.00;1.00;;;;;;;;5016029;28;11675;-80
2021/12/11 06:48:57;;;;;;;;;4.00;1.00;;;;;;;;5024286;28;12368;-80
2021/12/11 06:51:25;;;;;;;;;1.00;1.00;;;;;;;;5015477;28;11517;-79
2021/12/11 06:53:54;;;;;;;;;3.00;3.00;;;;;;;;5015725;28;11564;-84
2021/12/11 06:56:24;;;;;;;;;2.00;2.00;;;;;;;;5020332;28;11588;-81
2021/12/11 06:58:52;;;;;;;;;5.00;2.00;;;;;;;;5014671;28;11550;-79
2021/12/11 07:01:22;;;;;;;;;2.75;1.00;;;;;;;;5014577;28;11525;-80
2021/12/11 07:03:50;;;;;;;;;4.50;2.00;;;;;;;;5019160;28;11534;-80
2021/12/11 07:06:18;;;;;;;;;1.50;1.50;;;;;;;;5020125;28;11562;-78
2021/12/11 07:08:49;;;;;;;;;1.00;1.00;;;;;;;;5013706;28;12309;-77
2021/12/11 07:11:17;;;;;;;;;4.00;4.00;;;;;;;;5013888;28;11541;-80
2021/12/11 07:13:46;;;;;;;;;2.50;2.50;;;;;;;;5016477;28;11595;-79
2021/12/11 07:16:14;;;;;;;;;4.25;2.50;;;;;;;;5026538;28;11537;-81
2021/12/11 07:18:41;;;;;;;;;4.25;2.00;;;;;;;;5018547;28;11662;-82
2021/12/11 07:21:09;;;;;;;;;5.00;5.00;;;;;;;;5004606;28;11580;-77
2021/12/11 07:23:41;;;;;;;;;3.50;3.50;;;;;;;;5012625;28;11649;-76
2021/12/11 07:26:15;;;;;;;;;2.50;2.00;;;;;;;;5021635;28;12559;-76
2021/12/11 07:28:46;;;;;;;;;2.00;2.00;;;;;;;;5015611;28;11628;-77
2021/12/11 07:31:13;;;;;;;;;6.00;2.00;;;;;;;;5012301;28;11579;-77
2021/12/11 07:33:41;;;;;;;;;3.00;2.50;;;;;;;;5019133;28;11620;-78
2021/12/11 07:36:08;;;;;;;;;6.50;5.00;;;;;;;;5018248;28;12336;-78
2021/12/11 07:38:36;;;;;;;;;2.00;2.00;;;;;;;;5020169;28;11541;-77
2021/12/11 07:41:07;;;;;;;;;5.00;2.00;;;;;;;;5020079;28;11607;-76
2021/12/11 07:43:36;;;;;;;;;5.00;5.00;;;;;;;;5016375;28;11524;-78
2021/12/11 07:46:09;;;;;;;;;4.75;4.75;;;;;;;;5017888;28;11558;-78
2021/12/11 07:48:36;;;;;;;;;7.00;4.25;;;;;;;;5023995;28;11588;-77
2021/12/11 07:51:05;;;;;;;;;5.00;3.50;;;;;;;;5019750;28;11547;-78
2021/12/11 07:53:33;;;;;;;;;5.00;5.00;;;;;;;;5019219;28;11554;-77
2021/12/11 07:56:01;;;;;;;;;4.25;4.25;;;;;;;;5017625;28;11530;-78
2021/12/11 07:58:32;;;;;;;;;5.00;4.50;;;;;;;;5025606;28;11531;-78
2021/12/11 08:01:00;;;;;;;;;5.00;5.00;;;;;;;;5017432;28;11514;-78
2021/12/11 08:03:29;;;;;;;;;4.25;4.25;;;;;;;;5021394;28;12448;-79
2021/12/11 08:05:57;;;;;;;;;8.25;6.50;;;;;;;;5019683;28;11683;-79
2021/12/11 08:08:25;;;;;;;;;8.00;8.00;;;;;;;;5017194;28;12373;-78
2021/12/11 08:10:57;;;;;;;;;4.25;4.25;;;;;;;;5020672;28;11502;-77
2021/12/11 08:13:25;;;;;;;;;8.50;4.00;;;;;;;;5017593;28;11540;-78
2021/12/11 08:15:55;;;;;;;;;2.00;2.00;;;;;;;;5017775;28;13192;-76
2021/12/11 08:18:24;;;;;;;;;4.00;4.00;;;;;;;;5022527;28;11641;-77
2021/12/11 08:20:53;;;;;;;;;7.75;4.75;;;;;;;;5015616;28;11554;-78
2021/12/11 08:23:21;;;;;;;;;8.25;4.25;;;;;;;;5020017;28;11553;-78
2021/12/11 08:25:49;;;;;;;;;4.00;4.00;;;;;;;;5024111;28;11641;-77
2021/12/11 08:28:20;;;;;;;;;2.25;2.25;;;;;;;;5027183;28;11542;-77
2021/12/11 08:30:50;;;;;;;;;2.50;2.50;;;;;;;;5023842;28;11580;-78
2021/12/11 08:33:18;;;;;;;;;5.00;5.00;;;;;;;;5020382;28;11822;-77
2021/12/11 08:35:46;;;;;;;;;5.00;4.00;;;;;;;;5021174;28;11554;-78
2021/12/11 08:38:15;;;;;;;;;5.50;4.00;;;;;;;;5017316;28;12510;-78
2021/12/11 08:40:47;;;;;;;;;6.75;4.75;;;;;;;;5017485;28;11568;-79
2021/12/11 08:43:16;;;;;;;;;5.75;5.75;;;;;;;;5024031;28;12248;-79
2021/12/11 08:45:47;;;;;;;;;5.25;4.25;;;;;;;;5019134;28;11533;-79
2021/12/11 08:48:17;;;;;;;;;2.00;2.00;;;;;;;;5021281;28;11670;-78
2021/12/11 08:50:46;;;;;;;;;4.75;4.75;;;;;;;;5023220;28;11540;-79
2021/12/11 08:53:15;;;;;;;;;7.50;5.00;;;;;;;;5020502;28;11571;-79
2021/12/11 08:55:46;;;;;;;;;15.25;6.00;;;;;;;;5026409;28;11593;-78
2021/12/11 08:58:17;;;;;;;;;5.75;5.75;;;;;;;;5019560;28;11566;-78
2021/12/11 09:00:51;;;;;;;;;15.75;9.00;;;;;;;;5016800;28;11512;-77
2021/12/11 09:03:28;;;;;;;;;8.50;6.00;;;;;;;;5021788;28;11579;-83
2021/12/11 09:05:59;;;;;;;;;5.50;4.50;;;;;;;;5020030;28;11552;-81
2021/12/11 09:08:31;;;;;;;;;18.50;15.75;;;;;;;;5027300;28;11637;-78
2021/12/11 09:11:01;;;;;;;;;17.00;14.50;;;;;;;;5020788;28;11603;-80
2021/12/11 09:13:34;;;;;;;;;25.50;21.75;;;;;;;;5012304;28;11591;-80
2021/12/11 09:16:07;;;;;;;;;23.50;22.00;;;;;;;;5021246;28;11653;-80
2021/12/11 09:18:39;;;;;;;;;14.75;11.50;;;;;;;;5019237;28;11712;-80
2021/12/11 09:21:10;;;;;;;;;9.00;4.25;;;;;;;;5016481;28;11953;-78
2021/12/11 09:23:43;;;;;;;;;7.75;6.00;;;;;;;;5031935;28;11573;-78
2021/12/11 09:26:15;;;;;;;;;8.50;8.50;;;;;;;;5013573;28;11585;-75
2021/12/11 09:28:45;;;;;;;;;2.00;2.00;;;;;;;;5017216;28;11677;-78
2021/12/11 09:31:16;;;;;;;;;4.00;4.00;;;;;;;;5021499;28;12145;-79
2021/12/11 09:33:48;;;;;;;;;4.75;4.75;;;;;;;;5022288;28;11535;-80
2021/12/11 09:36:18;;;;;;;;;5.50;4.75;;;;;;;;5020716;28;11545;-77
2021/12/11 09:38:51;;;;;;;;;4.25;4.25;;;;;;;;5019728;28;11541;-76
2021/12/11 09:41:21;;;;;;;;;2.50;2.50;;;;;;;;5017079;28;11706;-76
2021/12/11 09:43:53;;;;;;;;;4.25;2.00;;;;;;;;5022263;28;11669;-76
2021/12/11 09:46:23;;;;;;;;;4.75;4.75;;;;;;;;5019316;28;11686;-76
2021/12/11 09:48:51;;;;;;;;;1.75;1.75;;;;;;;;5018721;28;12378;-79
2021/12/11 09:51:25;;;;;;;;;5.00;1.00;;;;;;;;5016026;28;11586;-78
2021/12/11 09:53:56;;;;;;;;;4.75;4.75;;;;;;;;5019503;28;12364;-77
2021/12/11 09:56:28;;;;;;;;;4.25;4.25;;;;;;;;5015496;28;11553;-78
2021/12/11 09:58:58;;;;;;;;;5.00;5.00;;;;;;;;5023604;28;11665;-77
2021/12/11 10:01:29;;;;;;;;;4.00;4.00;;;;;;;;5027766;28;11486;-76
2021/12/11 10:04:01;;;;;;;;;6.50;6.00;;;;;;;;5041464;28;11505;-75
2021/12/11 10:06:52;;;;;;;;;5.00;5.00;;;;;;;;5026757;28;11978;-78
2021/12/11 10:09:23;;;;;;;;;5.00;5.00;;;;;;;;5014541;28;11494;-75
2021/12/11 10:11:58;;;;;;;;;3.50;3.50;;;;;;;;5034996;28;11496;-77
2021/12/11 10:14:30;;;;;;;;;1.00;1.00;;;;;;;;5011779;28;11748;-79
2021/12/11 10:17:04;;;;;;;;;10.50;4.25;;;;;;;;5010445;28;11480;-75
2021/12/11 10:19:31;;;;;;;;;4.00;4.00;;;;;;;;5013803;28;11520;-76
2021/12/11 10:22:05;;;;;;;;;4.75;3.50;;;;;;;;5016363;28;12436;-80
2021/12/11 10:24:35;;;;;;;;;6.25;4.75;;;;;;;;5019158;28;11504;-79
2021/12/11 10:27:11;;;;;;;;;5.00;5.00;;;;;;;;5018531;28;11499;-80
2021/12/11 10:29:52;;;;;;;;;1.25;1.25;;;;;;;;5018253;28;11511;-83
2021/12/11 10:32:22;;;;;;;;;5.75;4.00;;;;;;;;5018756;28;11443;-77
2021/12/11 10:34:53;;;;;;;;;4.50;4.50;;;;;;;;5017973;28;11628;-73
2021/12/11 10:37:24;;;;;;;;;5.00;5.00;;;;;;;;5009576;28;11491;-74
2021/12/11 10:39:56;;;;;;;;;7.00;7.00;;;;;;;;5013557;28;11542;-78
2021/12/11 10:42:24;;;;;;;;;6.00;6.00;;;;;;;;5013059;28;11504;-81
2021/12/11 10:45:00;;;;;;;;;8.00;5.50;;;;;;;;5024523;28;11579;-80
2021/12/11 10:47:31;;;;;;;;;5.50;4.00;;;;;;;;5011424;28;11576;-79
2021/12/11 10:50:06;;;;;;;;;5.00;5.00;;;;;;;;5009170;28;11625;-78
2021/12/11 10:52:34;;;;;;;;;7.00;7.00;;;;;;;;5010433;28;11494;-78
2021/12/11 10:55:12;;;;;;;;;8.50;8.50;;;;;;;;5023171;28;11639;-78
2021/12/11 10:57:41;;;;;;;;;6.25;6.25;;;;;;;;5013779;28;11504;-76
2021/12/11 11:00:15;;;;;;;;;9.25;6.00;;;;;;;;5013010;28;11646;-76
2021/12/11 11:02:43;;;;;;;;;10.00;8.00;;;;;;;;5015162;28;12268;-82
2021/12/11 11:05:14;;;;;;;;;9.50;7.75;;;;;;;;5012767;28;11504;-80
2021/12/11 11:10:36;;;;;;;;;11.50;9.00;;;;;;;;5007963;28;11487;-82
2021/12/11 11:13:22;;;;;;;;;9.75;9.75;;;;;;;;5006844;28;11473;-80
2021/12/11 11:16:40;;;;;;;;;11.50;11.50;;;;;;;;5012260;28;11644;-81
2021/12/11 11:22:27;;;;;;;;;9.00;7.50;;;;;;;;5413714;22;11598;-81
2021/12/11 11:25:01;;;;;;;;;9.00;9.00;;;;;;;;4976935;28;11527;-80
2021/12/11 11:27:28;;;;;;;;;13.00;10.00;;;;;;;;4983262;28;11509;-80
2021/12/11 11:29:55;;;;;;;;;14.25;9.50;;;;;;;;4972349;28;11571;-80
2021/12/11 11:32:31;;;;;;;;;11.00;9.25;;;;;;;;4982093;28;11473;-80
2021/12/11 11:35:02;;;;;;;;;7.50;6.75;;;;;;;;4974980;28;11258;-80
2021/12/11 11:37:35;;;;;;;;;10.00;10.00;;;;;;;;4978595;28;11096;-78
2021/12/11 11:40:06;;;;;;;;;4.50;4.50;;;;;;;;4980390;28;10957;-81
2021/12/11 11:42:34;;;;;;;;;13.25;10.00;;;;;;;;4980452;28;10960;-80
2021/12/11 11:45:02;;;;;;;;;8.50;6.75;;;;;;;;4979573;28;10907;-82
2021/12/11 11:47:29;;;;;;;;;12.00;12.00;;;;;;;;4980338;28;10875;-81
2021/12/11 11:49:59;;;;;;;;;9.50;9.25;;;;;;;;4984165;28;10898;-82
2021/12/11 11:52:28;;;;;;;;;7.50;7.50;;;;;;;;4979574;28;11234;-79
2021/12/11 11:55:00;;;;;;;;;7.00;7.00;;;;;;;;4975035;28;10921;-78
2021/12/11 11:57:33;;;;;;;;;7.75;7.00;;;;;;;;4971985;28;10530;-76
2021/12/11 12:00:03;;;;;;;;;12.00;8.25;;;;;;;;4980144;28;10471;-75
2021/12/11 12:02:32;;;;;;;;;7.00;5.25;;;;;;;;4983338;28;10605;-78
2021/12/11 12:05:01;;;;;;;;;10.00;10.00;;;;;;;;4986599;28;10575;-77
2021/12/11 12:07:30;;;;;;;;;6.75;6.75;;;;;;;;4980064;28;11368;-74
2021/12/11 12:10:02;;;;;;;;;10.00;10.00;;;;;;;;4980704;28;10517;-78
2021/12/11 12:12:31;;;;;;;;;10.75;8.00;;;;;;;;4968481;28;10543;-79
2021/12/11 12:14:59;;;;;;;;;9.50;9.50;;;;;;;;4965140;28;11120;-79
2021/12/11 12:17:29;;;;;;;;;7.25;5.75;;;;;;;;4964757;28;10465;-80
2021/12/11 12:19:59;;;;;;;;;8.50;7.25;;;;;;;;4977319;28;10712;-79
2021/12/11 12:22:27;;;;;;;;;8.00;8.00;;;;;;;;4970469;28;10282;-77
2021/12/11 12:24:57;;;;;;;;;6.00;6.00;;;;;;;;4973225;28;10290;-76
2021/12/11 12:27:27;;;;;;;;;5.50;5.50;;;;;;;;4968615;28;10354;-76
2021/12/11 12:29:57;;;;;;;;;7.50;5.50;;;;;;;;4980692;28;10459;-79
2021/12/11 12:32:28;;;;;;;;;2.00;2.00;;;;;;;;4965102;28;10375;-78
2021/12/11 12:34:58;;;;;;;;;5.00;5.00;;;;;;;;4969723;28;10379;-76
2021/12/11 12:37:26;;;;;;;;;3.00;3.00;;;;;;;;4976482;28;11293;-76
2021/12/11 12:39:57;;;;;;;;;4.50;4.50;;;;;;;;4973792;28;10538;-74
2021/12/11 12:42:32;;;;;;;;;7.50;6.00;;;;;;;;4978422;28;10714;-77
2021/12/11 12:45:05;;;;;;;;;4.00;3.00;;;;;;;;4978401;28;10749;-80
2021/12/11 12:47:35;;;;;;;;;5.00;5.00;;;;;;;;4971617;28;11507;-77
2021/12/11 12:50:11;;;;;;;;;5.25;5.00;;;;;;;;4975399;28;10874;-79
2021/12/11 12:52:42;;;;;;;;;6.50;5.00;;;;;;;;4977876;28;10756;-78
2021/12/11 12:55:13;;;;;;;;;8.75;5.00;;;;;;;;4980558;28;10797;-78
2021/12/11 12:57:44;;;;;;;;;5.00;5.00;;;;;;;;4978208;28;10741;-78
2021/12/11 13:00:20;;;;;;;;;8.75;5.75;;;;;;;;4969693;28;10811;-78
2021/12/11 13:02:50;;;;;;;;;6.50;5.00;;;;;;;;4972035;28;10726;-78
2021/12/11 13:05:21;;;;;;;;;5.75;3.00;;;;;;;;4971412;28;10894;-79
2021/12/11 13:07:50;;;;;;;;;2.75;2.75;;;;;;;;4982105;28;10783;-80
2021/12/11 13:10:22;;;;;;;;;3.50;3.50;;;;;;;;4973266;28;10814;-79
2021/12/11 13:12:52;;;;;;;;;9.25;6.00;;;;;;;;4972242;28;10761;-79
2021/12/11 13:15:24;;;;;;;;;8.00;5.50;;;;;;;;4976393;28;10991;-79
2021/12/11 13:17:55;;;;;;;;;3.00;3.00;;;;;;;;4980659;28;11599;-79
2021/12/11 13:20:27;;;;;;;;;5.00;5.00;;;;;;;;4972442;28;10828;-79
2021/12/11 13:22:55;;;;;;;;;4.50;4.50;;;;;;;;4972727;28;10694;-79
2021/12/11 13:25:26;;;;;;;;;2.00;2.00;;;;;;;;4978158;28;10816;-80
2021/12/11 13:27:56;;;;;;;;;4.50;3.00;;;;;;;;4976374;28;10612;-79
2021/12/11 13:30:30;;;;;;;;;3.00;3.00;;;;;;;;4979681;28;10689;-78
2021/12/11 13:32:57;;;;;;;;;3.75;2.50;;;;;;;;4980593;28;10796;-78
2021/12/11 13:35:28;;;;;;;;;3.00;3.00;;;;;;;;4977477;28;10736;-79
2021/12/11 13:37:56;;;;;;;;;5.75;5.00;;;;;;;;4969184;28;10669;-78
2021/12/11 13:40:25;;;;;;;;;3.00;3.00;;;;;;;;4972894;28;10826;-79
2021/12/11 13:42:53;;;;;;;;;4.00;4.00;;;;;;;;4975699;28;10747;-79
2021/12/11 13:45:23;;;;;;;;;3.50;3.50;;;;;;;;4974535;28;11542;-79
2021/12/11 13:47:52;;;;;;;;;5.00;2.25;;;;;;;;4976126;28;10959;-77
2021/12/11 13:50:22;;;;;;;;;2.50;2.50;;;;;;;;4976220;28;10775;-78
2021/12/11 13:52:50;;;;;;;;;3.00;3.00;;;;;;;;4975721;28;10654;-78
2021/12/11 13:55:19;;;;;;;;;6.00;6.00;;;;;;;;4968065;28;10546;-78
2021/12/11 13:57:47;;;;;;;;;4.25;2.50;;;;;;;;4970632;28;10676;-78
2021/12/11 14:00:18;;;;;;;;;5.00;5.00;;;;;;;;4977110;28;11517;-83
2021/12/11 14:02:45;;;;;;;;;7.00;5.00;;;;;;;;4972524;28;10712;-77
2021/12/11 14:05:14;;;;;;;;;2.50;2.50;;;;;;;;4976976;28;10724;-78
2021/12/11 14:07:41;;;;;;;;;9.25;2.75;;;;;;;;4979318;28;10809;-80
2021/12/11 14:10:19;;;;;;;;;3.00;3.00;;;;;;;;4964683;28;10664;-79
2021/12/11 14:12:48;;;;;;;;;3.50;3.50;;;;;;;;4979526;28;10685;-79
2021/12/11 14:15:17;;;;;;;;;3.00;3.00;;;;;;;;4981493;28;10771;-79
2021/12/11 14:17:45;;;;;;;;;2.00;2.00;;;;;;;;4984845;28;10638;-82
2021/12/11 14:20:15;;;;;;;;;2.00;2.00;;;;;;;;4983553;28;10483;-79
2021/12/11 14:22:43;;;;;;;;;6.00;3.00;;;;;;;;4984315;28;10534;-82
2021/12/11 14:25:13;;;;;;;;;2.50;2.50;;;;;;;;4997426;28;10481;-82
2021/12/11 14:27:41;;;;;;;;;3.00;3.00;;;;;;;;4975175;28;10572;-81
2021/12/11 14:30:11;;;;;;;;;4.50;4.50;;;;;;;;4978832;28;10371;-78
2021/12/11 14:32:43;;;;;;;;;5.50;5.50;;;;;;;;4984641;28;11175;-82
2021/12/11 14:35:15;;;;;;;;;5.50;3.00;;;;;;;;4978750;28;10454;-82
2021/12/11 14:37:42;;;;;;;;;8.00;5.75;;;;;;;;4984982;28;10568;-78
2021/12/11 14:40:13;;;;;;;;;5.25;3.00;;;;;;;;4981704;28;10493;-81
2021/12/11 14:42:41;;;;;;;;;3.00;3.00;;;;;;;;4981929;28;10471;-80
2021/12/11 14:45:12;;;;;;;;;11.00;7.00;;;;;;;;4974350;28;10419;-80
2021/12/11 14:47:41;;;;;;;;;9.75;6.75;;;;;;;;4977930;28;10468;-81
2021/12/11 14:50:10;;;;;;;;;11.00;11.00;;;;;;;;4985457;28;10525;-77
2021/12/11 14:52:39;;;;;;;;;7.00;5.50;;;;;;;;4978006;28;10849;-79
2021/12/11 14:55:10;;;;;;;;;5.00;5.00;;;;;;;;4980853;28;10503;-80
2021/12/11 14:57:38;;;;;;;;;7.00;7.00;;;;;;;;4988574;28;11261;-81
2021/12/11 15:00:09;;;;;;;;;6.00;2.75;;;;;;;;4982296;28;10738;-81
2021/12/11 15:02:40;;;;;;;;;1.50;1.50;;;;;;;;4984861;28;10431;-80
2021/12/11 15:05:11;;;;;;;;;3.50;2.00;;;;;;;;4981576;28;10416;-79
2021/12/11 15:07:40;;;;;;;;;5.75;5.75;;;;;;;;4986225;28;10622;-82